hottube.me alexa rank chart, hottube.me alexa rank daily changes

hottube.me alexa rank chart, hottube.me alexa rank daily changes

hottube.me
Actual rank:
158 046

RANK HISTORY

Date Rank Diff
2017/12/11 158 046 +1 048
2017/12/10 156 998 +7 497
2017/12/09 149 501 +2 906
2017/12/08 146 595 -1 056
2017/12/07 147 651 -1 527
2017/12/06 149 178 -1 514
2017/12/05 150 692 -1 097
2017/12/04 151 789 -1 045
2017/12/03 152 834 -3 068
2017/12/02 155 902 -2 190
2017/12/01 158 092 -3 642
2017/11/30 161 734 -513
2017/11/29 162 247 +3 142
2017/11/28 159 105 -2 729
2017/11/27 161 834 -2 291
2017/11/26 164 125 +691
2017/11/25 163 434 -163
2017/11/24 163 597 -1 316
2017/11/23 164 913 +1 024
2017/11/22 163 889 +565
2017/11/21 163 324 +545
2017/11/20 162 779 -5 329
2017/11/19 168 108 +1 416
2017/11/18 166 692 -492
2017/11/17 167 184 -5 212
2017/11/16 172 396 +1 803
2017/11/15 170 593 -4 252
2017/11/14 174 845 -904
2017/11/13 175 749 -2 309
2017/11/12 178 058 -4 017
2017/11/11 182 075 -6 670
2017/11/10 188 745 -5 593
2017/11/09 194 338 -5 717
2017/11/08 200 055 -2 749
2017/11/07 202 804 +1 986
2017/11/06 200 818 +10 482
2017/11/05 190 336 -2 049
2017/11/04 192 385 +9 323
2017/11/03 183 062 +4 192
2017/11/02 178 870 +4 627
2017/11/01 174 243 +3 386
2017/10/31 170 857 +2 696
2017/10/30 168 161 +2 438
2017/10/29 165 723 -4 041
2017/10/28 169 764 +3 762
2017/10/27 166 002 +2 507
2017/10/26 163 495 -999
2017/10/25 164 494 +576
2017/10/24 163 918 +73
2017/10/23 163 845 +3 955
2017/10/22 159 890 +140
2017/10/21 159 750 -586
2017/10/20 160 336 -375
2017/10/19 160 711 -1 509
2017/10/18 162 220 -926
2017/10/17 163 146 -2 254
2017/10/16 165 400 +5 914
2017/10/14 159 486 +324
2017/10/13 159 162 +31
2017/10/12 159 131

WIDGET FOR YOUR SITE

DOMAINS WITH THE NEAREST RANK

Domain Rank
saafifilms.com 158 041
goldteenvideos.com 158 042
inna.is 158 043
mosf.go.kr 158 044
addiko.hr 158 045
hottube.me 158 046
speed-tester.info 158 047
rotiform.com 158 048
hxen.com 158 049
canal10.com.uy 158 050
fuyuanweb.net 158 051

DOMAINS WITH THE NEAREST RANK BY TLD .me

Domain Rank
desirefx.me 157 285
chungyang.me 157 515
scottyb.me 157 659
fresco.me 157 911
myreco.me 157 974
hottube.me 158 046
npnt.me 158 284
pun.me 158 412
movieo.me 158 500
anyti.me 158 790
suar.me 158 934